Time;durP1;ratioP1;P1;durP2;ratioP2;P2;SDS_P1;SDS_P2;PMS_P1;PMS_P2;Temp;Humidity;BMP_temperature;BMP_pressure;BME280_temperature;BME280_humidity;BME280_pressure;Samples;Min_cycle;Max_cycle;Signal;HPM_P1;HPM_P2
2024/01/20 00:01:31;;;;;;;9.20;2.13;;;;;;;-2.25;59.94;101990.69;4964042;28;20039;-69
2024/01/20 00:03:57;;;;;;;6.15;1.15;;;;;;;-2.28;59.46;101992.31;4954094;28;20114;-68
2024/01/20 00:06:22;;;;;;;2.10;0.70;;;;;;;-2.32;59.96;101986.19;4959099;28;20046;-68
2024/01/20 00:08:48;;;;;;;5.97;1.10;;;;;;;-2.28;59.85;101993.16;4951441;28;20616;-70
2024/01/20 00:11:14;;;;;;;11.95;0.95;;;;;;;-2.31;59.47;102003.31;4957378;28;20054;-70
2024/01/20 00:13:39;;;;;;;9.98;1.58;;;;;;;-2.13;58.75;101997.91;4988379;28;20556;-68
2024/01/20 00:16:05;;;;;;;9.90;1.55;;;;;;;-2.33;59.83;102006.66;4958650;28;20049;-68
2024/01/20 00:18:31;;;;;;;2.97;1.23;;;;;;;-2.59;60.51;102003.25;4961050;28;20042;-69
2024/01/20 00:20:57;;;;;;;5.50;1.10;;;;;;;-2.63;61.17;102003.13;4956325;28;20042;-66
2024/01/20 00:23:23;;;;;;;7.93;1.00;;;;;;;-2.69;60.91;102008.06;4960294;28;20049;-70
2024/01/20 00:25:48;;;;;;;3.20;1.30;;;;;;;-2.15;59.25;102006.38;4955304;28;20117;-70
2024/01/20 00:28:14;;;;;;;5.40;1.58;;;;;;;-2.46;60.20;102001.13;4962196;28;20730;-73
2024/01/20 00:30:40;;;;;;;1.73;0.68;;;;;;;-1.93;58.49;102005.28;4959334;28;20077;-66
2024/01/20 00:33:08;;;;;;;4.43;1.05;;;;;;;-2.27;59.18;101996.59;4954905;28;20555;-66
2024/01/20 00:35:36;;;;;;;2.40;0.95;;;;;;;-2.12;58.97;101996.19;4960181;28;20119;-73
2024/01/20 00:38:02;;;;;;;10.43;1.08;;;;;;;-2.26;59.49;101988.97;4958689;28;20548;-72
2024/01/20 00:40:28;;;;;;;11.60;1.90;;;;;;;-2.14;59.64;101997.84;4961799;28;20253;-73
2024/01/20 00:42:53;;;;;;;2.25;0.80;;;;;;;-2.43;59.70;102005.47;4958011;28;20258;-67
2024/01/20 00:45:19;;;;;;;7.68;1.17;;;;;;;-2.36;59.81;102015.09;4965866;28;20037;-68
2024/01/20 00:47:45;;;;;;;4.43;0.95;;;;;;;-2.08;58.66;102009.16;4957566;28;20034;-66
2024/01/20 00:50:10;;;;;;;6.97;1.25;;;;;;;-2.21;58.95;102017.28;4957147;28;20232;-66
2024/01/20 00:52:36;;;;;;;8.85;0.80;;;;;;;-2.19;59.14;102004.53;4962715;28;20041;-68
2024/01/20 00:55:02;;;;;;;5.32;1.27;;;;;;;-2.40;58.95;102015.84;4954431;28;20039;-67
2024/01/20 00:57:28;;;;;;;7.63;1.52;;;;;;;-2.28;59.12;102021.34;4961463;28;20041;-66
2024/01/20 00:59:53;;;;;;;7.32;1.20;;;;;;;-2.49;59.52;102020.63;4955508;28;20100;-68
2024/01/20 01:02:19;;;;;;;8.88;1.90;;;;;;;-2.49;60.13;102023.19;4963270;28;20038;-66
2024/01/20 01:04:45;;;;;;;5.65;1.50;;;;;;;-2.33;59.12;102025.44;4961576;28;20043;-67
2024/01/20 01:07:10;;;;;;;3.90;1.15;;;;;;;-2.46;59.93;102025.88;4955409;28;20406;-66
2024/01/20 01:09:36;;;;;;;5.88;1.52;;;;;;;-2.90;60.62;102025.25;4960726;28;20417;-67
2024/01/20 01:12:02;;;;;;;7.13;1.27;;;;;;;-2.54;59.60;102035.84;4968370;28;20057;-67
2024/01/20 01:14:28;;;;;;;3.92;1.33;;;;;;;-2.76;60.74;102031.72;4960053;28;20093;-67
2024/01/20 01:16:54;;;;;;;8.65;1.35;;;;;;;-2.67;60.43;102037.16;4954741;28;20463;-67
2024/01/20 01:19:19;;;;;;;8.20;1.25;;;;;;;-2.59;60.12;102049.34;4959043;28;20050;-67
2024/01/20 01:21:45;;;;;;;2.53;0.98;;;;;;;-2.30;59.56;102040.03;4959087;28;20161;-67
2024/01/20 01:24:11;;;;;;;3.17;1.40;;;;;;;-2.48;60.11;102055.69;4953315;28;20528;-65
2024/01/20 01:26:36;;;;;;;10.32;3.00;;;;;;;-2.46;59.63;102047.22;4959466;28;20034;-66
2024/01/20 01:29:02;;;;;;;5.13;1.92;;;;;;;-2.47;60.11;102045.50;4953061;28;20076;-66
2024/01/20 01:31:27;;;;;;;9.63;2.33;;;;;;;-2.43;59.53;102047.31;4960633;28;20142;-69
2024/01/20 01:33:53;;;;;;;6.97;1.90;;;;;;;-2.56;59.56;102041.75;4954042;28;20034;-70
2024/01/20 01:36:18;;;;;;;11.52;2.10;;;;;;;-2.65;60.16;102047.41;4948355;28;20557;-69
2024/01/20 01:38:44;;;;;;;7.10;2.65;;;;;;;-3.03;61.84;102053.78;4961009;28;20065;-69
2024/01/20 01:41:09;;;;;;;9.02;2.58;;;;;;;-2.89;60.94;102050.03;4984588;28;22384;-72
2024/01/20 01:43:35;;;;;;;7.35;2.60;;;;;;;-2.63;60.80;102049.22;4962543;28;20402;-73
2024/01/20 01:46:00;;;;;;;6.88;2.20;;;;;;;-2.29;59.54;102054.56;4955075;28;20043;-70
2024/01/20 01:48:27;;;;;;;7.18;2.83;;;;;;;-2.67;60.83;102057.63;4963826;28;20049;-71
2024/01/20 01:50:54;;;;;;;10.07;3.58;;;;;;;-2.85;61.29;102050.19;4952742;28;20502;-69
2024/01/20 01:53:19;;;;;;;4.43;2.72;;;;;;;-2.47;60.43;102058.31;4957922;28;20042;-70
2024/01/20 01:55:46;;;;;;;7.90;2.53;;;;;;;-2.75;60.51;102059.06;4957799;28;20043;-69
2024/01/20 01:58:12;;;;;;;12.45;3.70;;;;;;;-2.64;60.80;102054.31;4955128;28;20054;-71
2024/01/20 02:00:38;;;;;;;11.10;3.20;;;;;;;-2.71;60.51;102066.03;4959553;28;20053;-72
2024/01/20 02:03:08;;;;;;;7.15;3.05;;;;;;;-2.66;60.99;102064.47;4956728;28;20088;-71
2024/01/20 02:05:33;;;;;;;6.72;2.97;;;;;;;-2.67;60.98;102067.88;4958243;28;20228;-68
2024/01/20 02:07:59;;;;;;;6.47;2.55;;;;;;;-2.58;60.58;102076.66;4952251;28;20076;-70
2024/01/20 02:10:24;;;;;;;10.48;3.58;;;;;;;-2.93;61.56;102071.22;4960981;28;20052;-70
2024/01/20 02:12:50;;;;;;;12.77;3.53;;;;;;;-2.64;60.53;102062.84;4958010;28;20034;-72
2024/01/20 02:15:16;;;;;;;7.60;3.42;;;;;;;-2.96;62.22;102072.00;4976695;28;20061;-69
2024/01/20 02:17:55;;;;;;;9.73;2.80;;;;;;;-2.71;61.18;102071.13;4958243;28;20126;-69
2024/01/20 02:20:22;;;;;;;7.72;3.22;;;;;;;-2.42;60.40;102074.66;4961907;28;20037;-71
2024/01/20 02:22:48;;;;;;;6.43;3.03;;;;;;;-2.56;61.48;102081.00;4956758;28;20041;-67
2024/01/20 02:25:13;;;;;;;5.13;2.72;;;;;;;-2.40;60.89;102082.41;4861089;28;20030;-70
2024/01/20 02:27:40;;;;;;;11.63;3.65;;;;;;;-2.79;61.69;102093.03;4858160;28;20462;-70
2024/01/20 02:30:06;;;;;;;4.93;2.75;;;;;;;-2.11;60.16;102085.03;4861298;28;20043;-69
2024/01/20 02:32:32;;;;;;;15.52;3.17;;;;;;;-2.05;59.67;102086.09;4871667;28;20234;-72
2024/01/20 02:34:58;;;;;;;9.30;3.88;;;;;;;-2.33;60.53;102088.63;4866338;28;20042;-72
2024/01/20 02:37:24;;;;;;;7.70;2.67;;;;;;;-2.27;60.56;102079.44;4967486;28;20041;-72
2024/01/20 02:39:52;;;;;;;19.02;3.53;;;;;;;-2.40;60.80;102082.41;4976103;28;20046;-73
2024/01/20 02:42:17;;;;;;;5.85;2.85;;;;;;;-2.74;62.14;102081.25;4961036;28;20034;-72
2024/01/20 02:44:43;;;;;;;9.55;3.28;;;;;;;-1.88;59.66;102080.66;4961314;28;20138;-72
2024/01/20 02:47:08;;;;;;;6.70;2.83;;;;;;;-2.71;61.67;102086.50;4953515;28;20437;-72
2024/01/20 02:49:34;;;;;;;5.22;2.17;;;;;;;-2.37;60.81;102085.06;4949494;28;20047;-72
2024/01/20 02:52:00;;;;;;;12.20;2.90;;;;;;;-2.08;60.27;102086.00;4951444;28;20047;-68
2024/01/20 02:54:25;;;;;;;12.88;3.97;;;;;;;-2.07;59.60;102086.88;4970109;28;20129;-71
2024/01/20 02:56:51;;;;;;;8.73;2.70;;;;;;;-1.87;58.83;102090.91;4960787;28;20042;-70
2024/01/20 02:59:16;;;;;;;9.60;2.47;;;;;;;-2.30;60.20;102088.69;4952922;28;20050;-70
2024/01/20 03:01:42;;;;;;;5.55;2.45;;;;;;;-2.30;60.73;102089.56;4958003;28;20037;-68
2024/01/20 03:04:07;;;;;;;7.85;2.63;;;;;;;-2.13;60.01;102094.38;4950217;28;20046;-69
2024/01/20 03:06:33;;;;;;;4.85;3.00;;;;;;;-2.12;59.97;102094.41;4952420;28;20094;-68
2024/01/20 03:08:59;;;;;;;4.03;2.88;;;;;;;-1.99;59.60;102100.81;4951935;28;20140;-71
2024/01/20 03:11:25;;;;;;;11.25;4.28;;;;;;;-2.37;60.55;102099.56;4965364;28;20102;-70
2024/01/20 03:13:50;;;;;;;9.15;3.03;;;;;;;-2.29;59.63;102108.34;4959902;28;20077;-69
2024/01/20 03:16:16;;;;;;;6.55;3.72;;;;;;;-3.15;61.83;102111.38;4954870;28;20046;-69
2024/01/20 03:18:42;;;;;;;6.13;3.13;;;;;;;-2.33;60.22;102119.34;4956286;28;20481;-70
2024/01/20 03:21:08;;;;;;;8.13;3.72;;;;;;;-2.61;60.87;102117.53;4965731;28;20035;-70
2024/01/20 03:23:33;;;;;;;12.60;3.20;;;;;;;-2.71;61.13;102124.88;4956873;28;20080;-71
2024/01/20 03:26:06;;;;;;;7.85;2.72;;;;;;;-2.53;60.26;102126.34;4946891;28;20071;-70
2024/01/20 03:28:32;;;;;;;9.77;3.80;;;;;;;-2.56;60.05;102121.97;4955210;28;20041;-68
2024/01/20 03:30:58;;;;;;;12.88;3.42;;;;;;;-2.47;59.18;102123.97;4947385;28;20077;-68
2024/01/20 03:33:23;;;;;;;6.85;3.72;;;;;;;-2.39;59.25;102122.56;4948455;28;20070;-69
2024/01/20 03:35:49;;;;;;;8.98;4.10;;;;;;;-2.71;59.20;102109.53;4950787;28;20319;-69
2024/01/20 03:38:14;;;;;;;13.70;3.40;;;;;;;-3.22;61.82;102117.06;4953072;28;20512;-68
2024/01/20 03:40:43;;;;;;;10.70;4.35;;;;;;;-2.98;61.18;102121.31;4988891;28;20035;-68
2024/01/20 03:43:09;;;;;;;8.35;4.75;;;;;;;-2.80;60.66;102114.31;4947614;28;20117;-67
2024/01/20 03:45:35;;;;;;;9.52;5.43;;;;;;;-3.23;62.60;102117.00;4956583;28;20038;-69
2024/01/20 03:48:00;;;;;;;10.63;4.38;;;;;;;-3.00;61.81;102128.09;4953526;28;20045;-67
2024/01/20 03:50:26;;;;;;;6.57;3.97;;;;;;;-2.85;61.23;102129.53;4941363;28;20148;-70
2024/01/20 03:52:51;;;;;;;10.75;4.32;;;;;;;-2.96;61.43;102124.81;4935236;28;20067;-70
2024/01/20 03:55:16;;;;;;;11.18;5.57;;;;;;;-2.75;61.03;102125.59;4939254;28;20053;-69
2024/01/20 03:57:42;;;;;;;11.57;5.90;;;;;;;-2.88;61.46;102138.75;4936392;28;20030;-69
2024/01/20 04:00:09;;;;;;;6.97;4.60;;;;;;;-3.29;62.51;102135.56;4927741;28;20529;-67
2024/01/20 04:02:35;;;;;;;12.00;6.22;;;;;;;-3.34;63.19;102142.16;4959913;28;20049;-68
2024/01/20 04:05:00;;;;;;;11.43;5.55;;;;;;;-2.76;61.30;102143.44;4950500;28;20961;-66
2024/01/20 04:07:26;;;;;;;15.10;5.72;;;;;;;-3.02;61.49;102142.53;4948879;28;20085;-68
2024/01/20 04:09:51;;;;;;;6.43;5.20;;;;;;;-2.66;60.77;102146.38;4946855;28;20046;-68
2024/01/20 04:12:17;;;;;;;10.45;5.88;;;;;;;-2.96;61.07;102151.28;4948124;28;20065;-70
2024/01/20 04:14:43;;;;;;;11.95;6.32;;;;;;;-2.70;60.43;102157.31;4974526;28;20042;-71
2024/01/20 04:17:09;;;;;;;10.80;6.63;;;;;;;-3.29;62.30;102153.47;4956246;28;20516;-68
2024/01/20 04:19:35;;;;;;;14.40;6.72;;;;;;;-2.94;61.40;102161.56;4916231;28;21139;-67
2024/01/20 04:22:01;;;;;;;12.88;7.10;;;;;;;-2.87;60.92;102172.09;4885622;28;20042;-67
2024/01/20 04:24:26;;;;;;;16.42;7.80;;;;;;;-3.58;62.46;102158.31;4883414;28;20043;-69
2024/01/20 04:26:52;;;;;;;12.63;6.53;;;;;;;-3.07;61.63;102163.69;4907482;28;20125;-68
2024/01/20 04:29:18;;;;;;;13.05;7.70;;;;;;;-2.82;60.85;102172.25;4889298;28;20778;-69
2024/01/20 04:31:44;;;;;;;21.77;7.85;;;;;;;-2.78;60.60;102165.53;4939837;28;22478;-70
2024/01/20 04:34:10;;;;;;;13.27;8.07;;;;;;;-3.27;62.24;102155.25;4915041;28;20245;-68
2024/01/20 04:36:35;;;;;;;12.05;7.47;;;;;;;-3.17;62.03;102164.13;4935221;28;20053;-69
2024/01/20 04:39:03;;;;;;;10.75;7.18;;;;;;;-2.96;61.28;102165.75;4940446;28;20421;-69
2024/01/20 04:41:28;;;;;;;15.43;8.13;;;;;;;-3.16;62.25;102165.91;4910654;28;20587;-69
2024/01/20 04:43:54;;;;;;;11.23;8.52;;;;;;;-3.38;61.90;102158.22;4886052;28;20038;-68
2024/01/20 04:46:20;;;;;;;20.33;8.98;;;;;;;-3.14;61.90;102155.69;4876726;28;20255;-71
2024/01/20 04:48:45;;;;;;;15.77;8.65;;;;;;;-3.13;61.94;102168.56;4865040;28;20256;-69
2024/01/20 04:51:14;;;;;;;13.80;8.45;;;;;;;-3.15;61.40;102165.06;4879528;28;21670;-69
2024/01/20 04:53:39;;;;;;;18.60;8.95;;;;;;;-2.93;60.83;102160.75;4957105;28;20132;-69
2024/01/20 04:56:06;;;;;;;13.70;9.38;;;;;;;-3.12;61.44;102174.53;4957411;28;20058;-70
2024/01/20 04:58:32;;;;;;;20.30;9.80;;;;;;;-3.22;61.88;102165.66;4947731;28;21088;-69
2024/01/20 05:00:57;;;;;;;20.58;11.25;;;;;;;-3.26;61.95;102171.47;4947349;28;20053;-72
2024/01/20 05:03:23;;;;;;;11.98;7.88;;;;;;;-3.94;63.45;102168.81;4959508;28;20568;-70
2024/01/20 05:05:48;;;;;;;17.38;10.00;;;;;;;-3.05;61.27;102177.41;4990490;28;20035;-69
2024/01/20 05:08:14;;;;;;;20.33;10.40;;;;;;;-3.25;61.16;102175.75;4954587;28;20041;-69
2024/01/20 05:10:39;;;;;;;14.13;9.27;;;;;;;-3.60;62.71;102174.41;4962575;28;20136;-71
2024/01/20 05:13:05;;;;;;;19.90;10.02;;;;;;;-3.53;62.04;102177.25;4954776;28;20034;-70
2024/01/20 05:15:31;;;;;;;15.95;10.40;;;;;;;-3.38;62.45;102181.25;4962256;28;20039;-72
2024/01/20 05:17:56;;;;;;;16.88;9.95;;;;;;;-3.02;61.09;102180.91;4994489;28;20128;-70
2024/01/20 05:20:22;;;;;;;18.92;11.20;;;;;;;-3.56;62.08;102196.69;4953385;28;20049;-71
2024/01/20 05:22:48;;;;;;;21.48;9.60;;;;;;;-3.07;61.00;102191.81;4961432;28;20034;-69
2024/01/20 05:25:14;;;;;;;27.15;11.05;;;;;;;-3.75;63.21;102190.88;4954572;28;20120;-70
2024/01/20 05:27:40;;;;;;;16.70;9.95;;;;;;;-3.34;61.47;102198.41;4959526;28;20100;-69
2024/01/20 05:30:06;;;;;;;21.35;10.63;;;;;;;-3.74;62.76;102192.63;4957671;28;20177;-69
2024/01/20 05:32:32;;;;;;;16.17;11.38;;;;;;;-3.17;61.69;102194.84;4961050;28;20026;-67
2024/01/20 05:34:57;;;;;;;19.33;10.90;;;;;;;-3.16;61.03;102195.69;4957948;28;20047;-69
2024/01/20 05:37:23;;;;;;;17.10;10.55;;;;;;;-3.39;61.37;102199.94;4952048;28;20874;-67
2024/01/20 05:39:48;;;;;;;27.42;12.95;;;;;;;-3.50;61.61;102192.69;4940551;28;20105;-66
2024/01/20 05:42:14;;;;;;;21.05;12.00;;;;;;;-3.43;60.92;102192.94;4949261;28;20042;-68
2024/01/20 05:44:40;;;;;;;21.67;13.45;;;;;;;-4.00;62.17;102194.09;4948312;28;20275;-69
2024/01/20 05:47:05;;;;;;;23.75;12.82;;;;;;;-3.77;62.04;102199.28;4925846;28;20338;-65
2024/01/20 05:49:31;;;;;;;24.58;12.02;;;;;;;-3.85;61.69;102201.53;4879541;28;20885;-68
2024/01/20 05:51:57;;;;;;;25.52;11.98;;;;;;;-3.62;61.17;102207.56;4883259;28;20034;-69
2024/01/20 05:54:23;;;;;;;20.73;11.10;;;;;;;-3.76;61.68;102204.47;4877347;28;20339;-68
2024/01/20 05:56:49;;;;;;;18.50;13.00;;;;;;;-3.67;61.43;102203.97;4889203;28;20033;-66
2024/01/20 05:59:14;;;;;;;22.95;12.05;;;;;;;-3.59;60.71;102217.91;4889173;28;20505;-68
2024/01/20 06:01:40;;;;;;;24.52;13.38;;;;;;;-3.72;61.40;102213.09;4969299;28;20085;-72
2024/01/20 06:04:06;;;;;;;23.27;12.73;;;;;;;-3.89;62.11;102203.09;4945936;28;20524;-76
2024/01/20 06:06:31;;;;;;;22.88;13.02;;;;;;;-4.47;63.48;102213.38;4942803;28;20045;-72
2024/01/20 06:08:57;;;;;;;27.52;14.68;;;;;;;-4.61;63.57;102217.00;4954743;28;20122;-72
2024/01/20 06:11:24;;;;;;;23.45;12.13;;;;;;;-4.50;63.37;102220.91;4949104;28;20077;-72
2024/01/20 06:13:50;;;;;;;26.70;14.63;;;;;;;-4.20;62.54;102212.84;4966225;28;20115;-72
2024/01/20 06:16:16;;;;;;;29.02;14.32;;;;;;;-3.89;61.58;102223.53;4972658;28;20039;-72
2024/01/20 06:18:41;;;;;;;27.88;12.85;;;;;;;-4.26;62.29;102218.53;4964199;28;20045;-72
2024/01/20 06:21:08;;;;;;;23.15;14.10;;;;;;;-4.24;62.00;102229.69;4952922;28;20109;-73
2024/01/20 06:23:34;;;;;;;29.00;14.85;;;;;;;-4.13;62.07;102222.50;4944024;28;22226;-73
2024/01/20 06:25:59;;;;;;;29.85;13.55;;;;;;;-4.48;63.03;102231.19;4959281;28;20509;-73
2024/01/20 06:28:26;;;;;;;20.23;11.40;;;;;;;-4.45;62.68;102229.66;4980662;28;20114;-73
2024/01/20 06:30:52;;;;;;;21.85;13.88;;;;;;;-4.11;62.23;102244.72;4951004;28;20057;-73
2024/01/20 06:33:17;;;;;;;24.45;13.82;;;;;;;-3.77;61.19;102238.47;4953469;28;20038;-72
2024/01/20 06:35:43;;;;;;;23.83;12.95;;;;;;;-4.11;61.46;102246.41;4957540;28;20045;-72
2024/01/20 06:38:09;;;;;;;25.98;13.55;;;;;;;-4.03;61.34;102252.72;4960441;28;20408;-71
2024/01/20 06:40:34;;;;;;;24.38;13.77;;;;;;;-4.22;61.94;102247.63;4953195;28;20739;-72
2024/01/20 06:43:00;;;;;;;26.48;14.32;;;;;;;-4.66;62.96;102238.91;4956981;28;20045;-72
2024/01/20 06:45:30;;;;;;;23.92;14.32;;;;;;;-4.36;63.15;102247.03;4943829;28;20061;-73
2024/01/20 06:47:56;;;;;;;23.75;14.48;;;;;;;-4.36;62.57;102250.47;4966997;28;20096;-73
2024/01/20 06:50:21;;;;;;;25.33;13.43;;;;;;;-4.45;62.22;102244.09;4950611;28;20047;-73
2024/01/20 06:52:47;;;;;;;20.10;12.45;;;;;;;-4.56;62.93;102256.38;4964878;28;20037;-73
2024/01/20 06:55:13;;;;;;;27.85;14.52;;;;;;;-4.09;61.91;102255.03;4955440;28;20059;-74
2024/01/20 06:57:38;;;;;;;20.25;12.50;;;;;;;-3.96;61.32;102254.72;4987567;28;20177;-73
2024/01/20 07:00:08;;;;;;;21.13;12.93;;;;;;;-3.91;60.87;102249.81;4957021;28;20038;-73
2024/01/20 07:02:33;;;;;;;24.02;15.20;;;;;;;-4.20;62.05;102248.59;4950704;28;20042;-72
2024/01/20 07:05:00;;;;;;;32.17;13.65;;;;;;;-3.98;61.04;102253.78;4953955;28;20509;-72
2024/01/20 07:07:25;;;;;;;32.60;13.75;;;;;;;-4.23;61.70;102263.75;4950775;28;20065;-73
2024/01/20 07:09:51;;;;;;;26.60;13.32;;;;;;;-4.25;62.07;102262.84;4956420;28;20042;-73
2024/01/20 07:12:16;;;;;;;28.45;13.27;;;;;;;-4.64;63.13;102258.56;4955226;28;20125;-70
2024/01/20 07:14:43;;;;;;;32.53;13.18;;;;;;;-4.32;61.92;102267.66;4953267;28;20058;-70
2024/01/20 07:17:09;;;;;;;23.40;14.27;;;;;;;-4.81;63.37;102270.56;4955987;28;20042;-69
2024/01/20 07:19:34;;;;;;;28.50;14.48;;;;;;;-4.44;62.26;102266.25;4952056;28;20046;-70
2024/01/20 07:22:00;;;;;;;29.35;14.15;;;;;;;-4.26;61.93;102271.28;4954184;28;20610;-70
2024/01/20 07:24:27;;;;;;;26.65;14.20;;;;;;;-4.43;62.20;102268.88;4951061;28;20529;-70
2024/01/20 07:26:53;;;;;;;25.45;15.05;;;;;;;-4.35;62.03;102277.72;4956472;28;20031;-70
2024/01/20 07:29:19;;;;;;;28.70;14.00;;;;;;;-4.43;61.88;102276.53;4927301;28;20043;-69
2024/01/20 07:31:45;;;;;;;27.67;13.95;;;;;;;-4.19;61.41;102289.47;4936547;28;20102;-72
2024/01/20 07:34:11;;;;;;;35.47;13.55;;;;;;;-4.35;62.15;102284.50;4917263;28;20072;-66
2024/01/20 07:36:37;;;;;;;44.55;14.55;;;;;;;-4.24;61.97;102285.84;4873281;28;20039;-70
2024/01/20 07:39:04;;;;;;;28.33;12.57;;;;;;;-4.65;62.69;102297.66;4885425;28;20613;-66
2024/01/20 07:41:30;;;;;;;32.58;13.32;;;;;;;-4.33;61.56;102296.53;4863604;28;20156;-67
2024/01/20 07:43:57;;;;;;;30.15;14.02;;;;;;;-4.57;62.06;102293.78;4899653;28;20966;-66
2024/01/20 07:46:22;;;;;;;29.42;13.52;;;;;;;-4.31;60.96;102304.28;4868915;28;20030;-67
2024/01/20 07:48:48;;;;;;;26.20;14.43;;;;;;;-4.85;63.11;102306.06;4954092;28;20073;-66
2024/01/20 07:51:14;;;;;;;30.98;13.35;;;;;;;-4.24;61.27;102300.31;4954154;28;20192;-68
2024/01/20 07:53:40;;;;;;;25.73;12.07;;;;;;;-4.30;61.06;102308.56;4941681;28;20129;-66
2024/01/20 07:56:09;;;;;;;26.55;12.90;;;;;;;-4.31;61.34;102306.81;4955571;28;20047;-70
2024/01/20 07:58:35;;;;;;;26.95;12.02;;;;;;;-4.13;60.66;102314.41;4935974;28;21236;-71
2024/01/20 08:01:01;;;;;;;26.35;11.45;;;;;;;-3.60;59.58;102310.72;4955434;28;20035;-70
2024/01/20 08:03:27;;;;;;;32.47;13.13;;;;;;;-4.71;61.99;102308.44;4957762;28;20057;-73
2024/01/20 08:05:53;;;;;;;36.10;13.98;;;;;;;-4.18;60.96;102310.81;4955825;28;20494;-69
2024/01/20 08:08:19;;;;;;;26.67;13.85;;;;;;;-4.40;62.13;102314.94;4950272;28;20042;-69
2024/01/20 08:10:45;;;;;;;29.38;13.13;;;;;;;-4.21;60.98;102313.19;4968122;28;20039;-72
2024/01/20 08:13:11;;;;;;;33.75;13.32;;;;;;;-3.76;59.83;102314.34;4955272;28;20026;-72
2024/01/20 08:15:36;;;;;;;29.83;12.32;;;;;;;-4.20;60.14;102322.63;4949264;28;21593;-72
2024/01/20 08:18:03;;;;;;;32.05;12.73;;;;;;;-4.02;59.83;102323.41;4955215;28;20095;-73
2024/01/20 08:20:28;;;;;;;26.75;12.45;;;;;;;-3.67;59.72;102324.06;4966995;28;20349;-71
2024/01/20 08:22:54;;;;;;;26.20;13.05;;;;;;;-4.10;58.93;102340.97;4947936;28;20065;-69
2024/01/20 08:25:19;;;;;;;33.67;13.70;;;;;;;-4.41;60.89;102332.72;4950508;28;20128;-71
2024/01/20 08:27:45;;;;;;;35.38;11.40;;;;;;;-4.03;59.72;102326.81;4955126;28;20068;-72
2024/01/20 08:30:11;;;;;;;29.05;12.73;;;;;;;-4.10;60.07;102340.09;4955857;28;20038;-67
2024/01/20 08:32:37;;;;;;;28.55;13.27;;;;;;;-3.35;58.14;102340.72;4950883;28;20098;-71
2024/01/20 08:35:03;;;;;;;30.42;13.40;;;;;;;-2.56;55.91;102334.44;4970691;28;20224;-71
2024/01/20 08:37:28;;;;;;;27.60;12.88;;;;;;;-3.39;57.96;102345.66;4956789;28;20070;-72
2024/01/20 08:39:54;;;;;;;28.70;13.77;;;;;;;-3.20;57.14;102355.84;4955793;28;20050;-71
2024/01/20 08:42:20;;;;;;;26.58;10.50;;;;;;;-2.92;56.96;102346.69;4957010;28;20045;-71
2024/01/20 08:44:45;;;;;;;23.00;12.80;;;;;;;-3.23;56.91;102345.47;4962218;28;20105;-73
2024/01/20 08:47:11;;;;;;;29.58;12.45;;;;;;;-3.12;57.28;102344.22;4954696;28;20505;-71
2024/01/20 08:49:36;;;;;;;26.50;12.43;;;;;;;-3.67;58.49;102357.28;4951843;28;20125;-72
2024/01/20 08:52:02;;;;;;;28.02;12.48;;;;;;;-3.76;59.65;102359.47;4960969;28;20038;-72
2024/01/20 08:54:28;;;;;;;20.75;11.20;;;;;;;-3.57;58.51;102374.75;4954429;28;20042;-68
2024/01/20 08:56:54;;;;;;;21.23;10.68;;;;;;;-3.44;58.25;102357.38;4957945;28;20580;-70
2024/01/20 08:59:20;;;;;;;27.77;11.43;;;;;;;-2.85;57.14;102374.28;4957716;28;20046;-70
2024/01/20 09:01:45;;;;;;;27.60;11.93;;;;;;;-2.66;56.94;102366.50;4954920;28;20343;-72
2024/01/20 09:04:11;;;;;;;27.85;10.77;;;;;;;-2.13;55.81;102364.22;4956650;28;20775;-72
2024/01/20 09:06:37;;;;;;;38.17;12.15;;;;;;;-2.00;54.27;102370.66;4947791;28;20180;-72
2024/01/20 09:09:02;;;;;;;26.73;10.80;;;;;;;-1.68;53.88;102369.25;4952647;28;20042;-73
2024/01/20 09:11:28;;;;;;;22.58;9.25;;;;;;;-1.53;53.76;102376.59;4971798;28;20062;-72
2024/01/20 09:13:54;;;;;;;30.08;12.32;;;;;;;-1.83;53.54;102384.09;4953622;28;20026;-71
2024/01/20 09:16:19;;;;;;;21.35;10.98;;;;;;;-1.80;54.51;102379.94;4945756;28;20062;-69
2024/01/20 09:18:45;;;;;;;23.88;8.80;;;;;;;-1.76;54.23;102382.63;4966988;28;20035;-69
2024/01/20 09:21:13;;;;;;;27.17;10.60;;;;;;;-1.56;53.27;102379.03;4957884;28;20138;-69
2024/01/20 09:23:39;;;;;;;23.73;9.98;;;;;;;-1.50;53.13;102376.69;4947616;28;20491;-69
2024/01/20 09:26:04;;;;;;;28.50;11.57;;;;;;;-2.07;53.75;102378.94;4954739;28;20035;-69
2024/01/20 09:28:30;;;;;;;30.80;11.30;;;;;;;-0.54;50.92;102387.50;4954683;28;20066;-67
2024/01/20 09:30:55;;;;;;;24.70;9.52;;;;;;;-0.87;52.24;102393.31;4956180;28;20463;-67
2024/01/20 09:33:21;;;;;;;24.17;9.50;;;;;;;-1.00;52.33;102387.78;4970486;28;20031;-67
2024/01/20 09:35:47;;;;;;;24.50;10.13;;;;;;;-1.36;52.87;102412.22;4947506;28;20589;-67
2024/01/20 09:38:12;;;;;;;17.52;8.57;;;;;;;-1.78;53.86;102412.44;4944440;28;20034;-67
2024/01/20 09:40:38;;;;;;;19.73;9.38;;;;;;;-2.10;55.07;102419.84;4945882;28;20042;-67
2024/01/20 09:43:04;;;;;;;26.13;11.52;;;;;;;-1.63;54.25;102428.38;4958032;28;20026;-67
2024/01/20 09:45:31;;;;;;;22.58;10.00;;;;;;;-2.22;55.44;102426.25;4950531;28;20413;-67
2024/01/20 09:47:57;;;;;;;26.65;11.07;;;;;;;-2.39;55.09;102436.66;4953266;28;20030;-67
2024/01/20 09:50:23;;;;;;;26.60;10.25;;;;;;;-2.05;56.02;102434.53;4946439;28;20046;-66
2024/01/20 09:53:12;;;;;;;26.92;10.05;;;;;;;-1.84;55.26;102439.59;4954907;28;20041;-67
2024/01/20 09:55:37;;;;;;;27.70;11.52;;;;;;;-1.62;54.25;102435.22;4952193;28;20050;-67
2024/01/20 09:58:04;;;;;;;22.60;9.02;;;;;;;-1.47;53.93;102440.91;4953889;28;20045;-67
2024/01/20 10:00:30;;;;;;;27.58;9.85;;;;;;;-1.84;54.19;102439.59;4949978;28;20354;-67
2024/01/20 10:02:56;;;;;;;25.65;10.85;;;;;;;-2.43;56.46;102445.91;4947894;28;20088;-67
2024/01/20 10:05:24;;;;;;;30.08;11.55;;;;;;;-2.19;55.91;102440.84;4931053;28;20046;-67
2024/01/20 10:07:49;;;;;;;21.70;10.88;;;;;;;-2.54;56.37;102455.72;4894864;28;20042;-67
2024/01/20 10:10:22;;;;;;;23.45;10.80;;;;;;;-2.37;56.33;102450.41;4916300;28;20116;-67
2024/01/20 10:12:52;;;;;;;23.40;11.10;;;;;;;-2.24;55.86;102461.16;4883748;28;20398;-67
2024/01/20 10:15:22;;;;;;;27.15;12.68;;;;;;;-2.53;56.86;102464.28;4895061;28;20034;-67
2024/01/20 10:17:47;;;;;;;28.55;11.65;;;;;;;-2.43;57.00;102457.00;4916070;28;20544;-67
2024/01/20 10:20:32;;;;;;;25.90;11.50;;;;;;;-2.34;56.94;102474.41;4940705;28;20133;-67
2024/01/20 10:23:02;;;;;;;26.63;10.27;;;;;;;-1.88;56.14;102467.63;4940069;28;20126;-67
2024/01/20 10:25:27;;;;;;;27.88;10.43;;;;;;;-2.61;57.21;102465.66;4944779;28;20489;-67
2024/01/20 10:27:53;;;;;;;26.73;12.07;;;;;;;-3.10;59.29;102460.25;4959644;28;20041;-67
2024/01/20 10:30:26;;;;;;;37.45;13.30;;;;;;;-2.95;58.70;102459.16;4955811;28;20048;-66
2024/01/20 10:32:52;;;;;;;26.55;11.48;;;;;;;-3.05;58.74;102453.69;4954448;28;20034;-67
2024/01/20 10:35:18;;;;;;;29.75;12.48;;;;;;;-2.44;58.26;102459.53;4954716;28;20043;-66
2024/01/20 10:37:50;;;;;;;24.52;11.52;;;;;;;-2.35;57.47;102449.63;4887214;28;21245;-66
2024/01/20 10:40:16;;;;;;;32.75;12.10;;;;;;;-2.33;57.22;102452.28;4845243;28;20065;-66
2024/01/20 10:42:46;;;;;;;32.30;13.27;;;;;;;-1.97;57.12;102449.34;4872454;28;20423;-66
2024/01/20 10:45:17;;;;;;;32.08;12.52;;;;;;;-2.59;57.81;102458.91;4837719;28;20607;-66
2024/01/20 10:48:01;;;;;;;25.80;13.05;;;;;;;-2.06;57.32;102458.44;4863043;28;20631;-66
2024/01/20 10:50:27;;;;;;;27.42;13.15;;;;;;;-1.75;55.78;102459.59;4909617;28;20050;-67
2024/01/20 10:52:53;;;;;;;29.55;13.32;;;;;;;-1.96;55.93;102458.78;4952557;28;20038;-67
2024/01/20 10:55:20;;;;;;;23.60;10.52;;;;;;;-2.04;57.12;102456.81;4952326;28;20074;-67
2024/01/20 10:57:46;;;;;;;31.80;13.23;;;;;;;-1.22;55.18;102458.03;4953909;28;20092;-66
2024/01/20 11:00:14;;;;;;;24.02;11.55;;;;;;;-1.61;56.30;102460.94;4950491;28;20050;-67
2024/01/20 11:02:40;;;;;;;25.40;11.15;;;;;;;-1.52;55.97;102468.09;4955498;28;20813;-67
2024/01/20 11:05:18;;;;;;;24.45;13.30;;;;;;;-1.29;55.64;102466.31;4949194;28;20046;-67
2024/01/20 11:07:54;;;;;;;33.63;12.40;;;;;;;-1.60;56.20;102466.94;4950738;28;20038;-66
2024/01/20 11:10:22;;;;;;;29.77;10.98;;;;;;;-1.62;55.87;102476.25;4951990;28;20609;-66